Preview of NWS' New Version of Forecast
This preview is not operational and should not be used for support decisions.

Terminal Aerodrome Forecast (TAF)

Issued by National Weather Service (NWS)

                            
000
FTUS42 KKEY 191128
TAFEYW
TAF
KEYW 191128Z 1912/2012 06005KT P6SM FEW030
     FM191300 13011KT P6SM FEW030 SCT040
     FM200400 17012KT P6SM SCT025 SCT040
     FM200800 24014G20KT P6SM VCSH SCT025 BKN040 PROB30 2008/2012
      3SM SHRA BR BKN025=